Time;durP1;ratioP1;P1;durP2;ratioP2;P2;SDS_P1;SDS_P2;PMS_P1;PMS_P2;Temp;Humidity;BMP_temperature;BMP_pressure;BME280_temperature;BME280_humidity;BME280_pressure;Samples;Min_cycle;Max_cycle;Signal;HPM_P1;HPM_P2
2024/03/18 00:00:14;;;;;;;;;;;;;;;10.90;38.34;99153.23;68285;1283;1016216;-62
2024/03/18 00:03:36;;;;;;;;;;;;;;;10.55;38.57;99152.55;68287;1283;1016321;-62
2024/03/18 00:06:39;;;;;;;;;;;;;;;10.47;38.90;99150.59;68300;1283;1015620;-63
2024/03/18 00:09:41;;;;;;;;;;;;;;;10.35;38.96;99146.34;68300;1283;1016035;-70
2024/03/18 00:12:44;;;;;;;;;;;;;;;10.41;38.46;99148.95;68286;1283;1015683;-69
2024/03/18 00:15:46;;;;;;;;;;;;;;;10.35;38.31;99142.33;68297;1283;1016198;-62
2024/03/18 00:18:49;;;;;;;;;;;;;;;10.34;38.26;99139.73;68286;1283;1015961;-70
2024/03/18 00:21:52;;;;;;;;;;;;;;;10.24;38.74;99142.03;68293;1283;1015951;-62
2024/03/18 00:24:54;;;;;;;;;;;;;;;10.35;37.94;99137.42;68289;1283;1015394;-62
2024/03/18 00:27:57;;;;;;;;;;;;;;;10.36;38.13;99131.27;68285;1283;1015972;-66
2024/03/18 00:30:59;;;;;;;;;;;;;;;10.12;38.59;99133.38;68289;1283;1016170;-70
2024/03/18 00:34:02;;;;;;;;;;;;;;;9.90;38.27;99131.77;68300;1283;1016121;-62
2024/03/18 00:37:04;;;;;;;;;;;;;;;9.98;38.27;99129.60;68298;1283;1015990;-70
2024/03/18 00:40:08;;;;;;;;;;;;;;;10.24;38.43;99122.59;68288;1283;1016067;-70
2024/03/18 00:43:11;;;;;;;;;;;;;;;10.15;38.25;99132.36;68288;1283;1015722;-66
2024/03/18 00:46:13;;;;;;;;;;;;;;;10.21;38.20;99126.27;68292;1283;1015808;-62
2024/03/18 00:49:16;;;;;;;;;;;;;;;10.23;38.45;99123.21;68288;1283;1015195;-62
2024/03/18 00:52:18;;;;;;;;;;;;;;;9.94;38.94;99127.90;68274;1283;1015335;-62
2024/03/18 00:55:21;;;;;;;;;;;;;;;9.90;39.22;99116.77;68303;1283;1016204;-70
2024/03/18 00:58:23;;;;;;;;;;;;;;;9.82;39.26;99119.27;68286;1283;1015855;-69
2024/03/18 01:01:26;;;;;;;;;;;;;;;9.98;39.13;99119.14;68292;1283;1015952;-70
2024/03/18 01:04:28;;;;;;;;;;;;;;;10.06;39.46;99112.71;68279;1283;1014726;-70
2024/03/18 01:07:31;;;;;;;;;;;;;;;10.07;39.09;99111.85;68292;1283;1015731;-62
2024/03/18 01:10:33;;;;;;;;;;;;;;;10.11;39.20;99107.77;68295;1283;1016056;-64
2024/03/18 01:13:36;;;;;;;;;;;;;;;10.07;39.19;99102.71;68295;1283;1014659;-70
2024/03/18 01:16:38;;;;;;;;;;;;;;;10.17;38.99;99102.70;68293;1283;1016136;-63
2024/03/18 01:19:42;;;;;;;;;;;;;;;10.03;39.25;99103.27;68301;1283;1014735;-70
2024/03/18 01:22:45;;;;;;;;;;;;;;;10.22;39.16;99097.38;68290;1283;1015641;-64
2024/03/18 01:25:48;;;;;;;;;;;;;;;10.02;39.41;99103.86;68282;1283;1016090;-70
2024/03/18 01:28:50;;;;;;;;;;;;;;;10.17;39.09;99098.19;68297;1283;1015859;-69
2024/03/18 01:31:52;;;;;;;;;;;;;;;10.02;38.98;99103.39;68286;1283;1015921;-70
2024/03/18 01:34:55;;;;;;;;;;;;;;;9.84;39.55;99099.60;68283;1283;1015824;-69
2024/03/18 01:37:58;;;;;;;;;;;;;;;10.00;39.44;99100.85;68289;1283;1016192;-70
2024/03/18 01:41:00;;;;;;;;;;;;;;;9.91;39.47;99092.61;68290;1283;1015351;-69
2024/03/18 01:44:02;;;;;;;;;;;;;;;9.84;39.80;99090.31;68288;1283;1015918;-62
2024/03/18 01:47:05;;;;;;;;;;;;;;;9.94;39.51;99085.12;68292;1283;1015027;-70
2024/03/18 01:50:09;;;;;;;;;;;;;;;10.05;39.08;99085.19;68286;1283;1015733;-62
2024/03/18 01:53:12;;;;;;;;;;;;;;;9.89;39.26;99093.20;68297;1283;1015856;-69
2024/03/18 01:56:15;;;;;;;;;;;;;;;9.90;39.71;99092.30;68284;1283;1015201;-62
2024/03/18 01:59:17;;;;;;;;;;;;;;;10.25;39.09;99090.41;68304;1283;1015981;-65
2024/03/18 02:02:20;;;;;;;;;;;;;;;10.14;39.17;99094.34;68281;1283;1015953;-70
2024/03/18 02:05:22;;;;;;;;;;;;;;;10.12;39.39;99090.56;68291;1283;1015498;-70
2024/03/18 02:08:25;;;;;;;;;;;;;;;10.06;39.38;99092.11;68295;1283;1016264;-70
2024/03/18 02:11:28;;;;;;;;;;;;;;;9.98;39.58;99090.98;68293;1283;1015945;-62
2024/03/18 02:14:30;;;;;;;;;;;;;;;9.82;40.03;99096.70;68306;1283;1015316;-70
2024/03/18 02:17:33;;;;;;;;;;;;;;;9.82;40.09;99092.55;68298;1283;1016622;-69
2024/03/18 02:20:35;;;;;;;;;;;;;;;9.83;40.03;99094.92;68292;1283;1015432;-69
2024/03/18 02:23:38;;;;;;;;;;;;;;;9.97;39.69;99091.39;68295;1283;1016009;-70
2024/03/18 02:26:40;;;;;;;;;;;;;;;10.11;39.64;99094.83;68303;1283;1015543;-70
2024/03/18 02:29:42;;;;;;;;;;;;;;;9.88;39.83;99095.39;68286;1283;1015532;-61
2024/03/18 02:32:45;;;;;;;;;;;;;;;9.84;39.83;99093.98;68287;1283;1014764;-65
2024/03/18 02:35:47;;;;;;;;;;;;;;;9.51;40.31;99094.36;68292;1283;1016121;-62
2024/03/18 02:38:51;;;;;;;;;;;;;;;9.66;40.33;99099.84;68279;1283;1016173;-65
2024/03/18 02:41:54;;;;;;;;;;;;;;;9.95;39.74;99098.48;68289;1283;1015431;-70
2024/03/18 02:44:56;;;;;;;;;;;;;;;10.21;38.91;99101.63;68295;1283;1015741;-69
2024/03/18 02:47:59;;;;;;;;;;;;;;;10.27;38.99;99098.33;68291;1283;1015999;-70
2024/03/18 02:51:01;;;;;;;;;;;;;;;10.18;39.04;99096.38;68281;1283;1014324;-69
2024/03/18 02:54:04;;;;;;;;;;;;;;;10.23;38.95;99099.75;68289;1283;1015393;-70
2024/03/18 02:57:06;;;;;;;;;;;;;;;10.14;39.28;99097.12;68301;1283;1016198;-70
2024/03/18 03:00:10;;;;;;;;;;;;;;;10.02;39.20;99099.17;68291;1283;1015718;-70
2024/03/18 03:03:13;;;;;;;;;;;;;;;9.75;39.11;99102.38;68290;1283;1015133;-62
2024/03/18 03:06:16;;;;;;;;;;;;;;;9.70;39.49;99101.41;68288;1283;1015658;-61
2024/03/18 03:09:19;;;;;;;;;;;;;;;9.78;39.43;99085.05;68295;1283;1015874;-70
2024/03/18 03:12:23;;;;;;;;;;;;;;;9.76;39.43;99084.66;68288;1283;1015544;-67
2024/03/18 03:15:25;;;;;;;;;;;;;;;9.84;39.22;99082.67;68302;1283;1015865;-62
2024/03/18 03:18:28;;;;;;;;;;;;;;;9.80;39.26;99082.38;68291;1283;1014956;-62
2024/03/18 03:21:30;;;;;;;;;;;;;;;9.95;38.83;99085.02;68285;1283;1015686;-70
2024/03/18 03:24:32;;;;;;;;;;;;;;;9.93;39.14;99077.80;68286;1283;1014507;-69
2024/03/18 03:27:36;;;;;;;;;;;;;;;9.93;39.29;99086.70;68295;1283;1014795;-70
2024/03/18 03:30:39;;;;;;;;;;;;;;;9.89;39.07;99089.73;68299;1283;1014693;-70
2024/03/18 03:33:41;;;;;;;;;;;;;;;9.52;39.73;99096.20;68302;1283;1016108;-70
2024/03/18 03:36:44;;;;;;;;;;;;;;;9.57;39.56;99093.34;68295;1283;1016193;-70
2024/03/18 03:39:46;;;;;;;;;;;;;;;9.61;39.72;99094.36;68307;1283;1016305;-70
2024/03/18 03:42:49;;;;;;;;;;;;;;;9.44;39.96;99088.42;68294;1283;1015278;-70
2024/03/18 03:45:54;;;;;;;;;;;;;;;9.60;39.85;99086.20;68290;1283;1015995;-70
2024/03/18 03:48:57;;;;;;;;;;;;;;;9.64;39.60;99088.81;68282;1283;1016061;-70
2024/03/18 03:51:59;;;;;;;;;;;;;;;9.53;40.14;99094.09;68286;1283;1015718;-70
2024/03/18 03:55:01;;;;;;;;;;;;;;;9.49;40.07;99087.48;68298;1283;1015022;-70
2024/03/18 03:58:04;;;;;;;;;;;;;;;9.39;40.15;99086.42;68293;1283;1016040;-70
2024/03/18 04:01:06;;;;;;;;;;;;;;;9.45;39.95;99084.17;68289;1283;1015900;-70
2024/03/18 04:04:09;;;;;;;;;;;;;;;9.32;39.92;99090.64;68299;1283;1016122;-69
2024/03/18 04:07:13;;;;;;;;;;;;;;;9.22;40.01;99088.50;68274;1283;1016104;-67
2024/03/18 04:10:15;;;;;;;;;;;;;;;9.19;40.43;99089.02;68284;1283;1015689;-70
2024/03/18 04:13:17;;;;;;;;;;;;;;;8.96;40.86;99095.04;68282;1283;1015522;-70
2024/03/18 04:16:20;;;;;;;;;;;;;;;8.77;40.96;99101.04;68292;1283;1015306;-70
2024/03/18 04:19:22;;;;;;;;;;;;;;;8.95;40.69;99093.38;68289;1283;1015567;-70
2024/03/18 04:22:25;;;;;;;;;;;;;;;9.17;40.62;99094.38;68277;1283;1015624;-65
2024/03/18 04:25:27;;;;;;;;;;;;;;;9.09;40.53;99101.38;68288;1283;1015681;-70
2024/03/18 04:28:30;;;;;;;;;;;;;;;9.10;40.66;99103.06;68283;1283;1015380;-70
2024/03/18 04:31:32;;;;;;;;;;;;;;;8.95;40.58;99100.84;68278;1283;1015034;-70
2024/03/18 04:34:35;;;;;;;;;;;;;;;8.86;41.02;99104.94;68288;1283;1015379;-70
2024/03/18 04:37:42;;;;;;;;;;;;;;;8.64;41.63;99113.72;68293;1283;1016020;-70
2024/03/18 04:40:45;;;;;;;;;;;;;;;8.62;41.47;99114.33;68294;1283;1016041;-68
2024/03/18 04:43:47;;;;;;;;;;;;;;;8.71;41.45;99114.04;68285;1283;1015315;-70
2024/03/18 04:46:50;;;;;;;;;;;;;;;8.77;41.41;99116.73;68287;1283;1015260;-70
2024/03/18 04:49:52;;;;;;;;;;;;;;;8.63;41.90;99117.23;68289;1283;1015986;-70
2024/03/18 04:52:55;;;;;;;;;;;;;;;8.75;41.79;99116.99;68289;1283;1016096;-70
2024/03/18 04:55:58;;;;;;;;;;;;;;;8.79;41.35;99119.08;68297;1283;1016092;-70
2024/03/18 04:59:00;;;;;;;;;;;;;;;8.82;41.53;99119.84;68303;1283;1015338;-70
2024/03/18 05:02:05;;;;;;;;;;;;;;;8.96;41.34;99118.92;68290;1283;1015267;-63
2024/03/18 05:05:07;;;;;;;;;;;;;;;8.82;41.72;99118.42;68307;1283;1015316;-70
2024/03/18 05:08:10;;;;;;;;;;;;;;;9.04;41.21;99118.38;68291;1283;1015698;-71
2024/03/18 05:11:13;;;;;;;;;;;;;;;9.17;40.86;99117.55;68289;1283;1015644;-62
2024/03/18 05:14:15;;;;;;;;;;;;;;;9.20;41.07;99113.23;68296;1283;1015443;-70
2024/03/18 05:17:17;;;;;;;;;;;;;;;9.22;41.12;99114.02;68284;1283;1016132;-70
2024/03/18 05:20:20;;;;;;;;;;;;;;;9.26;40.77;99104.89;68282;1283;1015716;-61
2024/03/18 05:23:23;;;;;;;;;;;;;;;9.24;41.00;99109.34;68289;1283;1016043;-65
2024/03/18 05:26:26;;;;;;;;;;;;;;;9.20;40.97;99106.58;66138;1283;5388891;-70
2024/03/18 05:29:28;;;;;;;;;;;;;;;9.43;40.88;99093.73;68300;1283;1016172;-70
2024/03/18 05:32:31;;;;;;;;;;;;;;;9.46;40.45;99095.48;68287;1283;1016234;-70
2024/03/18 05:35:33;;;;;;;;;;;;;;;9.39;40.29;99093.39;68304;1283;1015908;-70
2024/03/18 05:38:36;;;;;;;;;;;;;;;9.44;40.35;99093.11;68288;1283;1015974;-70
2024/03/18 05:41:38;;;;;;;;;;;;;;;9.22;40.90;99100.39;68289;1283;1015669;-70
2024/03/18 05:44:40;;;;;;;;;;;;;;;9.27;40.99;99103.80;68298;1283;1015840;-69
2024/03/18 05:47:43;;;;;;;;;;;;;;;9.38;41.11;99105.52;68287;1283;1016036;-70
2024/03/18 05:50:45;;;;;;;;;;;;;;;9.40;40.92;99109.23;68295;1283;1014445;-70
2024/03/18 05:53:48;;;;;;;;;;;;;;;9.37;40.87;99108.36;68289;1283;1016237;-62
2024/03/18 05:56:51;;;;;;;;;;;;;;;9.41;40.70;99112.48;68289;1283;1015891;-70
2024/03/18 05:59:54;;;;;;;;;;;;;;;9.43;40.53;99115.54;68295;1283;1015877;-70
2024/03/18 06:02:56;;;;;;;;;;;;;;;9.46;40.49;99123.61;68285;1283;1015566;-69
2024/03/18 06:05:59;;;;;;;;;;;;;;;9.58;40.40;99118.95;68290;1283;1015191;-68
2024/03/18 06:09:01;;;;;;;;;;;;;;;9.51;40.69;99118.45;68300;1283;1015339;-70
2024/03/18 06:12:04;;;;;;;;;;;;;;;9.46;40.88;99112.40;68296;1284;1015382;-70
2024/03/18 06:15:06;;;;;;;;;;;;;;;9.81;39.54;99112.65;68293;1283;1015333;-67
2024/03/18 06:18:10;;;;;;;;;;;;;;;9.66;39.90;99105.41;68279;1283;1015863;-70
2024/03/18 06:21:16;;;;;;;;;;;;;;;9.75;39.95;99107.27;68278;1283;1017402;-67
2024/03/18 06:24:20;;;;;;;;;;;;;;;9.98;39.52;99110.55;68299;1283;1016225;-70
2024/03/18 06:27:22;;;;;;;;;;;;;;;9.93;39.38;99106.64;68280;1283;1015939;-70
2024/03/18 06:30:25;;;;;;;;;;;;;;;10.07;39.27;99111.83;68286;1283;1015741;-68
2024/03/18 06:33:27;;;;;;;;;;;;;;;10.10;38.84;99111.13;68278;1283;1016088;-70
2024/03/18 06:36:30;;;;;;;;;;;;;;;10.17;38.50;99104.42;68297;1283;1016123;-70
2024/03/18 06:39:32;;;;;;;;;;;;;;;10.33;38.45;99099.23;68286;1283;1015233;-69
2024/03/18 06:42:35;;;;;;;;;;;;;;;10.24;37.78;99099.00;68285;1283;1015572;-70
2024/03/18 06:45:37;;;;;;;;;;;;;;;9.94;37.16;99095.41;68293;1283;1015892;-62
2024/03/18 06:48:40;;;;;;;;;;;;;;;10.22;37.46;99094.93;68289;1283;1015995;-62
2024/03/18 06:51:43;;;;;;;;;;;;;;;10.69;37.02;99090.43;68283;1284;1016273;-69
2024/03/18 06:54:45;;;;;;;;;;;;;;;10.70;37.31;99092.48;68282;1283;1016202;-69
2024/03/18 06:57:48;;;;;;;;;;;;;;;10.65;36.36;99092.72;68292;1283;1016209;-70
2024/03/18 07:00:52;;;;;;;;;;;;;;;10.42;37.10;99092.65;68283;1283;1015441;-62
2024/03/18 07:03:54;;;;;;;;;;;;;;;10.49;37.24;99092.57;68282;1283;1015709;-70
2024/03/18 07:06:57;;;;;;;;;;;;;;;10.21;37.54;99107.02;68286;1283;1015272;-70
2024/03/18 07:09:59;;;;;;;;;;;;;;;9.97;37.86;99098.04;68299;1283;1015529;-70
2024/03/18 07:13:02;;;;;;;;;;;;;;;10.30;37.67;99101.46;68267;1284;1016117;-70
2024/03/18 07:16:04;;;;;;;;;;;;;;;10.36;37.77;99105.36;68284;1284;1015141;-70
2024/03/18 07:19:07;;;;;;;;;;;;;;;10.28;38.00;99108.05;68283;1283;1015509;-70
2024/03/18 07:22:10;;;;;;;;;;;;;;;10.47;37.55;99111.39;68286;1283;1015899;-65
2024/03/18 07:25:17;;;;;;;;;;;;;;;10.40;37.82;99106.23;68292;1283;1015580;-65
2024/03/18 07:28:19;;;;;;;;;;;;;;;10.48;37.78;99106.13;68285;1283;1016288;-70
2024/03/18 07:31:22;;;;;;;;;;;;;;;10.78;37.33;99111.09;68280;1283;1015830;-70
2024/03/18 07:34:24;;;;;;;;;;;;;;;11.05;36.81;99100.94;68287;1283;1015381;-70
2024/03/18 07:37:28;;;;;;;;;;;;;;;11.36;36.95;99098.91;68284;1283;1015974;-70
2024/03/18 07:40:31;;;;;;;;;;;;;;;11.39;37.46;99101.75;68275;1283;1014965;-63
2024/03/18 07:43:33;;;;;;;;;;;;;;;11.39;36.10;99103.86;68286;1283;1015935;-70
2024/03/18 07:46:36;;;;;;;;;;;;;;;11.28;36.18;99099.77;68281;1283;1015792;-69
2024/03/18 07:49:38;;;;;;;;;;;;;;;11.67;35.98;99103.23;68293;1283;1015544;-69
2024/03/18 07:52:41;;;;;;;;;;;;;;;12.15;35.26;99098.87;68279;1283;1015274;-69
2024/03/18 07:55:43;;;;;;;;;;;;;;;12.59;34.74;99100.61;68290;1283;1015616;-69
2024/03/18 07:58:47;;;;;;;;;;;;;;;12.84;34.46;99098.88;68298;1283;1015712;-70
2024/03/18 08:01:49;;;;;;;;;;;;;;;12.59;34.36;99098.35;68290;1283;1015282;-70
2024/03/18 08:04:51;;;;;;;;;;;;;;;12.41;34.16;99098.09;68286;1283;1015679;-63
2024/03/18 08:07:54;;;;;;;;;;;;;;;12.79;34.17;99097.96;68292;1283;1015357;-69
2024/03/18 08:10:56;;;;;;;;;;;;;;;12.56;33.75;99100.67;68295;1283;1015916;-63
2024/03/18 08:13:59;;;;;;;;;;;;;;;12.12;33.76;99095.92;68286;1283;1015876;-69
2024/03/18 08:17:04;;;;;;;;;;;;;;;12.24;34.26;99096.55;68288;1283;1014999;-69
2024/03/18 08:20:07;;;;;;;;;;;;;;;12.30;33.97;99093.61;68286;1283;1015652;-69
2024/03/18 08:23:10;;;;;;;;;;;;;;;12.33;34.02;99085.63;68294;1283;1015924;-70
2024/03/18 08:26:12;;;;;;;;;;;;;;;12.02;34.10;99090.95;68284;1283;1016149;-62
2024/03/18 08:29:15;;;;;;;;;;;;;;;12.04;34.24;99081.49;68287;1283;1016213;-62
2024/03/18 08:32:17;;;;;;;;;;;;;;;11.85;34.23;99090.39;68283;1283;1014919;-70
2024/03/18 08:35:20;;;;;;;;;;;;;;;11.97;34.71;99083.15;68281;1283;1015238;-69
2024/03/18 08:38:22;;;;;;;;;;;;;;;12.11;34.56;99079.33;68293;1283;1015940;-69
2024/03/18 08:41:25;;;;;;;;;;;;;;;12.26;34.39;99075.72;68283;1283;1016081;-70
2024/03/18 08:44:27;;;;;;;;;;;;;;;12.12;34.56;99086.81;68293;1283;1016023;-63
2024/03/18 08:47:30;;;;;;;;;;;;;;;11.77;34.87;99082.10;68287;1283;1015539;-69
2024/03/18 08:50:33;;;;;;;;;;;;;;;12.06;34.61;99078.23;68273;1283;1015659;-63
2024/03/18 08:53:36;;;;;;;;;;;;;;;12.01;34.30;99079.63;68285;1283;1016064;-70
2024/03/18 08:56:38;;;;;;;;;;;;;;;12.43;34.44;99075.56;68284;1283;1015946;-69
2024/03/18 08:59:40;;;;;;;;;;;;;;;12.72;33.86;99077.89;68278;1283;1015254;-70
2024/03/18 09:02:43;;;;;;;;;;;;;;;12.96;33.77;99072.11;68292;1283;1015315;-69
2024/03/18 09:05:50;;;;;;;;;;;;;;;13.03;33.48;99078.81;68282;1283;1016515;-62
2024/03/18 09:08:52;;;;;;;;;;;;;;;13.00;33.18;99078.64;68282;1283;1015351;-62
2024/03/18 09:11:54;;;;;;;;;;;;;;;12.58;33.21;99082.65;68292;1283;1014445;-69
2024/03/18 09:14:57;;;;;;;;;;;;;;;12.77;33.58;99082.11;68280;1283;1016190;-69
2024/03/18 09:17:59;;;;;;;;;;;;;;;12.84;33.71;99086.55;68283;1283;1015949;-62
2024/03/18 09:21:02;;;;;;;;;;;;;;;12.76;33.38;99080.93;68281;1283;1014905;-69
2024/03/18 09:24:04;;;;;;;;;;;;;;;12.81;33.88;99084.30;68297;1283;1016264;-70
2024/03/18 09:27:07;;;;;;;;;;;;;;;12.93;33.23;99085.44;68291;1283;1015846;-69
2024/03/18 09:30:10;;;;;;;;;;;;;;;12.83;33.10;99085.60;68286;1283;1015449;-62
2024/03/18 09:33:12;;;;;;;;;;;;;;;12.57;33.70;99088.48;68288;1283;1016246;-68
2024/03/18 09:36:15;;;;;;;;;;;;;;;12.29;34.13;99088.19;68275;1283;1016174;-69
2024/03/18 09:39:17;;;;;;;;;;;;;;;12.34;34.18;99089.27;68290;1283;1015979;-62
2024/03/18 09:42:20;;;;;;;;;;;;;;;12.00;35.00;99086.47;68288;1283;1015505;-66
2024/03/18 09:45:23;;;;;;;;;;;;;;;11.94;34.68;99086.69;68281;1283;1015749;-69
2024/03/18 09:48:26;;;;;;;;;;;;;;;12.56;34.25;99078.94;68295;1283;1015432;-69
2024/03/18 09:51:28;;;;;;;;;;;;;;;12.80;34.28;99075.23;68282;1283;1016109;-69
2024/03/18 09:54:31;;;;;;;;;;;;;;;13.29;33.51;99076.36;68278;1283;1016343;-70
2024/03/18 09:57:34;;;;;;;;;;;;;;;13.73;33.50;99064.61;68284;1283;1015408;-69
2024/03/18 10:00:36;;;;;;;;;;;;;;;14.07;33.89;99068.73;68293;1283;1015281;-70
2024/03/18 10:03:39;;;;;;;;;;;;;;;14.09;32.82;99072.41;68284;1283;1015331;-70
2024/03/18 10:06:42;;;;;;;;;;;;;;;14.10;32.91;99070.08;68282;1283;1014416;-70
2024/03/18 10:09:44;;;;;;;;;;;;;;;13.70;33.39;99072.00;68283;1283;1016050;-70
2024/03/18 10:12:49;;;;;;;;;;;;;;;13.63;33.27;99073.17;68281;1283;1015352;-69
2024/03/18 10:15:51;;;;;;;;;;;;;;;13.26;33.93;99080.77;68272;1283;1016335;-63
2024/03/18 10:18:53;;;;;;;;;;;;;;;13.08;34.61;99081.65;68279;1283;1015488;-69
2024/03/18 10:21:56;;;;;;;;;;;;;;;13.07;34.61;99082.09;68289;1283;1016017;-63
2024/03/18 10:24:58;;;;;;;;;;;;;;;12.99;34.91;99077.14;68286;1283;1015604;-69
2024/03/18 10:28:01;;;;;;;;;;;;;;;13.47;34.65;99070.41;68291;1283;1016098;-70
2024/03/18 10:31:03;;;;;;;;;;;;;;;13.74;34.46;99072.79;68289;1283;1015651;-69
2024/03/18 10:34:06;;;;;;;;;;;;;;;13.61;34.47;99067.32;68284;1283;1015865;-70
2024/03/18 10:37:08;;;;;;;;;;;;;;;14.35;34.86;99068.30;68287;1283;1014683;-69
2024/03/18 10:40:10;;;;;;;;;;;;;;;14.66;33.60;99064.80;68289;1283;1015444;-69
2024/03/18 10:43:14;;;;;;;;;;;;;;;14.88;32.98;99063.00;68294;1283;1015790;-69
2024/03/18 10:46:17;;;;;;;;;;;;;;;14.89;33.24;99060.10;68287;1283;1015187;-69
2024/03/18 10:49:19;;;;;;;;;;;;;;;15.02;33.67;99050.33;68287;1283;1015564;-69
2024/03/18 10:52:22;;;;;;;;;;;;;;;15.11;33.09;99050.21;68289;1283;1015784;-69
2024/03/18 10:55:26;;;;;;;;;;;;;;;15.25;32.88;99055.08;68286;1283;1015987;-68
2024/03/18 10:58:28;;;;;;;;;;;;;;;15.32;33.05;99054.08;68295;1283;1015310;-69
2024/03/18 11:01:31;;;;;;;;;;;;;;;15.43;32.69;99063.61;68285;1283;1015002;-69
2024/03/18 11:04:33;;;;;;;;;;;;;;;15.07;33.19;99048.73;68271;1283;1015897;-69
2024/03/18 11:07:36;;;;;;;;;;;;;;;14.69;32.94;99054.38;68282;1283;1016028;-64
2024/03/18 11:10:39;;;;;;;;;;;;;;;14.70;33.38;99048.80;68287;1283;1015558;-69
2024/03/18 11:13:41;;;;;;;;;;;;;;;14.50;33.85;99055.17;68274;1283;1015604;-70
2024/03/18 11:16:44;;;;;;;;;;;;;;;14.47;33.86;99050.04;68266;1283;1015850;-69
2024/03/18 11:19:46;;;;;;;;;;;;;;;14.37;33.76;99054.06;68277;1283;1016044;-68
2024/03/18 11:22:49;;;;;;;;;;;;;;;14.30;33.54;99052.77;68281;1283;1016156;-69
2024/03/18 11:25:51;;;;;;;;;;;;;;;14.25;34.03;99053.16;68284;1283;1015138;-69
2024/03/18 11:28:54;;;;;;;;;;;;;;;14.39;33.37;99047.24;68284;1283;1015980;-62
2024/03/18 11:31:56;;;;;;;;;;;;;;;14.59;33.03;99047.53;68304;1283;1016154;-68
2024/03/18 11:34:59;;;;;;;;;;;;;;;14.76;32.33;99050.33;68292;1283;1015801;-63
2024/03/18 11:38:02;;;;;;;;;;;;;;;14.84;32.58;99049.38;68276;1283;1015345;-64
2024/03/18 11:41:05;;;;;;;;;;;;;;;15.07;32.88;99038.84;68278;1283;1015738;-69
2024/03/18 11:44:07;;;;;;;;;;;;;;;15.08;32.34;99032.97;68283;1283;1015964;-69
2024/03/18 11:47:10;;;;;;;;;;;;;;;14.92;32.67;99031.36;68290;1283;1014726;-69
2024/03/18 11:50:12;;;;;;;;;;;;;;;14.56;33.22;99040.16;68288;1283;1016042;-69
2024/03/18 11:53:15;;;;;;;;;;;;;;;14.31;33.21;99036.20;68282;1283;1016252;-69
2024/03/18 11:56:18;;;;;;;;;;;;;;;14.07;33.59;99031.91;68285;1283;1015621;-69
2024/03/18 11:59:22;;;;;;;;;;;;;;;14.07;33.91;99037.02;68279;1283;1015379;-69
2024/03/18 12:02:24;;;;;;;;;;;;;;;14.18;33.71;99034.19;68288;1283;1015660;-63
2024/03/18 12:05:27;;;;;;;;;;;;;;;13.99;34.79;99036.59;68278;1283;1015665;-70
2024/03/18 12:08:31;;;;;;;;;;;;;;;13.67;35.15;99042.70;68281;1283;1015484;-69
2024/03/18 12:11:34;;;;;;;;;;;;;;;13.54;35.24;99044.31;68281;1283;1014642;-70
2024/03/18 12:14:36;;;;;;;;;;;;;;;13.45;35.33;99036.84;68278;1283;1015397;-69
2024/03/18 12:17:39;;;;;;;;;;;;;;;13.42;34.89;99043.55;68298;1283;1015555;-69
2024/03/18 12:20:41;;;;;;;;;;;;;;;13.02;35.66;99036.58;68277;1283;1015311;-69
2024/03/18 12:30:24;;;;;;;;;;;;;;;13.35;34.97;99029.44;68291;1283;1016774;-70
2024/03/18 12:33:27;;;;;;;;;;;;;;;13.38;34.98;99030.62;68284;1283;1015200;-70
2024/03/18 12:36:29;;;;;;;;;;;;;;;13.37;35.02;99033.02;68285;1283;1015148;-68
2024/03/18 12:39:31;;;;;;;;;;;;;;;13.45;34.91;99034.39;68276;1283;1015563;-69
2024/03/18 12:42:34;;;;;;;;;;;;;;;13.37;35.04;99033.34;68295;1283;1016546;-69
2024/03/18 12:45:37;;;;;;;;;;;;;;;13.45;34.93;99035.21;68298;1283;1016372;-69
2024/03/18 12:48:40;;;;;;;;;;;;;;;13.75;34.54;99028.93;68281;1283;1015622;-69
2024/03/18 12:51:42;;;;;;;;;;;;;;;14.05;34.18;99025.91;68292;1283;1014878;-69
2024/03/18 12:54:45;;;;;;;;;;;;;;;13.87;34.52;99026.52;68285;1283;1015916;-70
2024/03/18 12:57:47;;;;;;;;;;;;;;;14.06;34.15;99027.76;68285;1283;1015541;-62
2024/03/18 13:00:50;;;;;;;;;;;;;;;13.80;34.32;99022.45;68280;1283;1016035;-69
2024/03/18 13:03:53;;;;;;;;;;;;;;;13.92;34.04;99024.24;68278;1283;1016084;-66
2024/03/18 13:06:57;;;;;;;;;;;;;;;14.01;34.06;99018.84;68282;1283;1016466;-69
2024/03/18 13:10:01;;;;;;;;;;;;;;;14.16;34.08;99015.11;68288;1283;1016164;-66
2024/03/18 13:13:03;;;;;;;;;;;;;;;14.45;34.00;99009.83;68283;1283;1015891;-69
2024/03/18 13:16:06;;;;;;;;;;;;;;;14.55;33.83;98999.90;68285;1283;1014475;-66
2024/03/18 13:19:08;;;;;;;;;;;;;;;14.53;33.91;99009.77;68280;1283;1016201;-68
2024/03/18 13:22:11;;;;;;;;;;;;;;;14.47;33.66;99003.20;68284;1283;1015333;-69
2024/03/18 13:25:14;;;;;;;;;;;;;;;14.19;34.08;99005.22;68284;1283;1015805;-65
2024/03/18 13:28:17;;;;;;;;;;;;;;;14.08;34.23;99010.29;68264;1283;1014325;-69
2024/03/18 13:31:22;;;;;;;;;;;;;;;14.03;33.85;99006.91;68296;1283;1015687;-69
2024/03/18 13:34:24;;;;;;;;;;;;;;;14.19;33.90;99010.52;68288;1283;1015544;-67
2024/03/18 13:37:29;;;;;;;;;;;;;;;14.45;33.88;99010.02;68280;1283;1015628;-69
2024/03/18 13:40:31;;;;;;;;;;;;;;;14.26;34.13;99009.66;68281;1283;1015988;-69
2024/03/18 13:43:34;;;;;;;;;;;;;;;14.18;34.47;99012.36;68286;1283;1015263;-69
2024/03/18 13:46:36;;;;;;;;;;;;;;;14.36;34.07;99006.65;68291;1283;1015299;-69
2024/03/18 13:49:39;;;;;;;;;;;;;;;14.38;33.87;99006.84;68278;1283;1015447;-70
2024/03/18 13:52:41;;;;;;;;;;;;;;;14.43;33.68;99009.65;68278;1283;1016171;-62
2024/03/18 13:55:44;;;;;;;;;;;;;;;14.49;33.50;99010.24;68291;1283;1015781;-69
2024/03/18 13:58:47;;;;;;;;;;;;;;;14.32;33.83;99005.49;68289;1283;1015305;-69
2024/03/18 14:01:49;;;;;;;;;;;;;;;14.27;34.09;99002.71;68296;1283;1015519;-63
2024/03/18 14:04:52;;;;;;;;;;;;;;;14.32;33.99;99006.02;68281;1283;1015714;-69
2024/03/18 14:07:54;;;;;;;;;;;;;;;14.31;34.18;99009.62;68291;1283;1016033;-63
2024/03/18 14:10:57;;;;;;;;;;;;;;;14.43;33.87;99012.48;68293;1283;1016027;-69
2024/03/18 14:13:59;;;;;;;;;;;;;;;14.31;34.31;99013.86;68280;1283;1015680;-70
2024/03/18 14:17:02;;;;;;;;;;;;;;;14.29;34.28;99009.64;68284;1283;1016015;-69
2024/03/18 14:20:08;;;;;;;;;;;;;;;14.09;34.03;99021.94;68275;1283;1015649;-62
2024/03/18 14:23:11;;;;;;;;;;;;;;;13.80;34.51;99009.79;68280;1283;1015381;-69
2024/03/18 14:26:13;;;;;;;;;;;;;;;13.95;34.51;99009.05;68294;1283;1016728;-69
2024/03/18 14:29:16;;;;;;;;;;;;;;;14.18;34.29;99013.21;68280;1283;1015611;-69
2024/03/18 14:32:18;;;;;;;;;;;;;;;14.31;34.08;99010.03;68286;1283;1014996;-69
2024/03/18 14:35:21;;;;;;;;;;;;;;;14.40;33.92;99014.28;68280;1283;1015247;-69
2024/03/18 14:38:23;;;;;;;;;;;;;;;14.16;34.05;99013.86;68285;1283;1015355;-69
2024/03/18 14:41:25;;;;;;;;;;;;;;;14.14;34.37;99016.87;68280;1283;1016199;-69
2024/03/18 14:44:30;;;;;;;;;;;;;;;14.34;34.18;99019.98;68286;1283;1015333;-69
2024/03/18 14:47:32;;;;;;;;;;;;;;;14.16;34.53;99016.56;68284;1283;1015301;-69
2024/03/18 14:50:36;;;;;;;;;;;;;;;14.40;34.14;99012.38;68286;1283;1016173;-69
2024/03/18 14:53:42;;;;;;;;;;;;;;;14.40;33.83;99020.92;68296;1283;1015445;-69
2024/03/18 14:56:46;;;;;;;;;;;;;;;14.25;33.93;99027.12;68290;1283;1016405;-69
2024/03/18 14:59:49;;;;;;;;;;;;;;;13.93;34.48;99023.48;68280;1283;1015982;-62
2024/03/18 15:02:51;;;;;;;;;;;;;;;13.66;34.90;99031.02;68281;1283;1015635;-63
2024/03/18 15:05:54;;;;;;;;;;;;;;;13.45;35.11;99027.33;68289;1283;1015222;-70
2024/03/18 15:08:56;;;;;;;;;;;;;;;13.84;34.87;99024.66;68298;1283;1016120;-69
2024/03/18 15:11:59;;;;;;;;;;;;;;;13.96;34.83;99024.51;68284;1283;1015840;-69
2024/03/18 15:15:01;;;;;;;;;;;;;;;14.02;34.94;99020.90;68289;1283;1015966;-69
2024/03/18 15:18:04;;;;;;;;;;;;;;;13.67;35.51;99028.27;68287;1283;1016123;-69
2024/03/18 15:21:07;;;;;;;;;;;;;;;13.57;35.40;99033.34;68291;1283;1016035;-69
2024/03/18 15:24:27;;;;;;;;;;;;;;;13.43;35.85;99034.27;68291;1283;1015535;-69
2024/03/18 15:27:49;;;;;;;;;;;;;;;13.43;35.85;99038.04;68292;1283;1015659;-69
2024/03/18 15:30:52;;;;;;;;;;;;;;;13.63;35.22;99048.10;68288;1283;1015594;-69
2024/03/18 15:33:55;;;;;;;;;;;;;;;13.55;35.37;99041.79;68291;1283;1015418;-65
2024/03/18 15:36:58;;;;;;;;;;;;;;;13.37;35.70;99045.63;68280;1283;1016369;-69